sensor_id;sensor_type;location;lat;lon;timestamp;temperature;humidity
8152;DHT22;4117;53.622;9.958;2024-02-15T00:00:51;10.40;99.90
8152;DHT22;4117;53.622;9.958;2024-02-15T00:03:18;10.40;99.90
8152;DHT22;4117;53.622;9.958;2024-02-15T00:05:47;10.40;99.90
8152;DHT22;4117;53.622;9.958;2024-02-15T00:08:14;10.40;99.90
8152;DHT22;4117;53.622;9.958;2024-02-15T00:10:43;10.40;99.90
8152;DHT22;4117;53.622;9.958;2024-02-15T00:13:11;10.40;99.90
8152;DHT22;4117;53.622;9.958;2024-02-15T00:15:38;10.40;99.90
8152;DHT22;4117;53.622;9.958;2024-02-15T00:18:05;10.40;99.90
8152;DHT22;4117;53.622;9.958;2024-02-15T00:20:33;10.40;99.90
8152;DHT22;4117;53.622;9.958;2024-02-15T00:23:00;10.50;99.90
8152;DHT22;4117;53.622;9.958;2024-02-15T00:25:27;10.50;99.90
8152;DHT22;4117;53.622;9.958;2024-02-15T00:27:55;10.50;99.90
8152;DHT22;4117;53.622;9.958;2024-02-15T00:30:22;10.40;99.90
8152;DHT22;4117;53.622;9.958;2024-02-15T00:32:49;10.50;99.90
8152;DHT22;4117;53.622;9.958;2024-02-15T00:35:16;10.50;99.90
8152;DHT22;4117;53.622;9.958;2024-02-15T00:37:44;10.50;99.90
8152;DHT22;4117;53.622;9.958;2024-02-15T00:40:12;10.50;99.90
8152;DHT22;4117;53.622;9.958;2024-02-15T00:42:39;10.50;99.90
8152;DHT22;4117;53.622;9.958;2024-02-15T00:45:07;10.50;99.90
8152;DHT22;4117;53.622;9.958;2024-02-15T00:47:35;10.50;99.90
8152;DHT22;4117;53.622;9.958;2024-02-15T00:50:04;10.50;99.90
8152;DHT22;4117;53.622;9.958;2024-02-15T00:52:31;10.50;99.90
8152;DHT22;4117;53.622;9.958;2024-02-15T00:54:58;10.50;99.90
8152;DHT22;4117;53.622;9.958;2024-02-15T00:57:24;10.50;99.90
8152;DHT22;4117;53.622;9.958;2024-02-15T00:59:52;10.50;99.90
8152;DHT22;4117;53.622;9.958;2024-02-15T01:02:20;10.60;99.90
8152;DHT22;4117;53.622;9.958;2024-02-15T01:04:47;10.50;99.90
8152;DHT22;4117;53.622;9.958;2024-02-15T01:07:14;10.60;99.90
8152;DHT22;4117;53.622;9.958;2024-02-15T01:09:41;10.50;99.90
8152;DHT22;4117;53.622;9.958;2024-02-15T01:12:08;10.50;99.90
8152;DHT22;4117;53.622;9.958;2024-02-15T01:14:35;10.60;99.90
8152;DHT22;4117;53.622;9.958;2024-02-15T01:17:02;10.60;99.90
8152;DHT22;4117;53.622;9.958;2024-02-15T01:19:31;10.60;99.90
8152;DHT22;4117;53.622;9.958;2024-02-15T01:21:57;10.60;99.90
8152;DHT22;4117;53.622;9.958;2024-02-15T01:24:25;10.60;99.90
8152;DHT22;4117;53.622;9.958;2024-02-15T01:26:52;10.60;99.90
8152;DHT22;4117;53.622;9.958;2024-02-15T01:29:20;10.60;99.90
8152;DHT22;4117;53.622;9.958;2024-02-15T01:31:47;10.60;99.90
8152;DHT22;4117;53.622;9.958;2024-02-15T01:34:14;10.60;99.90
8152;DHT22;4117;53.622;9.958;2024-02-15T01:36:42;10.60;99.90
8152;DHT22;4117;53.622;9.958;2024-02-15T01:39:09;10.60;99.90
8152;DHT22;4117;53.622;9.958;2024-02-15T01:41:36;10.60;99.90
8152;DHT22;4117;53.622;9.958;2024-02-15T01:44:04;10.60;99.90
8152;DHT22;4117;53.622;9.958;2024-02-15T01:46:31;10.60;99.90
8152;DHT22;4117;53.622;9.958;2024-02-15T01:48:59;10.60;99.90
8152;DHT22;4117;53.622;9.958;2024-02-15T01:51:26;10.60;99.90
8152;DHT22;4117;53.622;9.958;2024-02-15T01:53:55;10.60;99.90
8152;DHT22;4117;53.622;9.958;2024-02-15T01:56:23;10.60;99.90
8152;DHT22;4117;53.622;9.958;2024-02-15T01:58:51;10.60;99.90
8152;DHT22;4117;53.622;9.958;2024-02-15T02:01:18;10.60;99.90
8152;DHT22;4117;53.622;9.958;2024-02-15T02:03:45;10.60;99.90
8152;DHT22;4117;53.622;9.958;2024-02-15T02:06:13;10.60;99.90
8152;DHT22;4117;53.622;9.958;2024-02-15T02:08:40;10.60;99.90
8152;DHT22;4117;53.622;9.958;2024-02-15T02:11:09;10.60;99.90
8152;DHT22;4117;53.622;9.958;2024-02-15T02:13:35;10.60;99.90
8152;DHT22;4117;53.622;9.958;2024-02-15T02:16:03;10.60;99.90
8152;DHT22;4117;53.622;9.958;2024-02-15T02:18:30;10.60;99.90
8152;DHT22;4117;53.622;9.958;2024-02-15T02:20:57;10.60;99.90
8152;DHT22;4117;53.622;9.958;2024-02-15T02:23:26;10.60;99.90
8152;DHT22;4117;53.622;9.958;2024-02-15T02:25:54;10.60;99.90
8152;DHT22;4117;53.622;9.958;2024-02-15T02:28:22;10.60;99.90
8152;DHT22;4117;53.622;9.958;2024-02-15T02:30:49;10.60;99.90
8152;DHT22;4117;53.622;9.958;2024-02-15T02:33:16;10.60;99.90
8152;DHT22;4117;53.622;9.958;2024-02-15T02:35:44;10.60;99.90
8152;DHT22;4117;53.622;9.958;2024-02-15T02:38:12;10.60;99.90
8152;DHT22;4117;53.622;9.958;2024-02-15T02:40:40;10.60;99.90
8152;DHT22;4117;53.622;9.958;2024-02-15T02:43:08;10.60;99.90
8152;DHT22;4117;53.622;9.958;2024-02-15T02:45:35;10.60;99.90
8152;DHT22;4117;53.622;9.958;2024-02-15T02:48:03;10.60;99.90
8152;DHT22;4117;53.622;9.958;2024-02-15T02:50:30;10.60;99.90
8152;DHT22;4117;53.622;9.958;2024-02-15T02:52:57;10.60;99.90
8152;DHT22;4117;53.622;9.958;2024-02-15T02:55:24;10.70;99.90
8152;DHT22;4117;53.622;9.958;2024-02-15T02:57:52;10.70;99.90
8152;DHT22;4117;53.622;9.958;2024-02-15T03:00:22;10.70;99.90
8152;DHT22;4117;53.622;9.958;2024-02-15T03:02:49;10.70;99.90
8152;DHT22;4117;53.622;9.958;2024-02-15T03:05:16;10.70;99.90
8152;DHT22;4117;53.622;9.958;2024-02-15T03:07:46;10.70;99.90
8152;DHT22;4117;53.622;9.958;2024-02-15T03:10:13;10.70;99.90
8152;DHT22;4117;53.622;9.958;2024-02-15T03:12:40;10.70;99.90
8152;DHT22;4117;53.622;9.958;2024-02-15T03:15:09;10.70;99.90
8152;DHT22;4117;53.622;9.958;2024-02-15T03:17:39;10.70;99.90
8152;DHT22;4117;53.622;9.958;2024-02-15T03:20:08;10.70;99.90
8152;DHT22;4117;53.622;9.958;2024-02-15T03:22:37;10.70;99.90
8152;DHT22;4117;53.622;9.958;2024-02-15T03:25:05;10.70;99.90
8152;DHT22;4117;53.622;9.958;2024-02-15T03:27:33;10.70;99.90
8152;DHT22;4117;53.622;9.958;2024-02-15T03:30:01;10.70;99.90
8152;DHT22;4117;53.622;9.958;2024-02-15T03:32:29;10.70;99.90
8152;DHT22;4117;53.622;9.958;2024-02-15T03:34:57;10.70;99.90
8152;DHT22;4117;53.622;9.958;2024-02-15T03:37:26;10.70;99.90
8152;DHT22;4117;53.622;9.958;2024-02-15T03:39:53;10.70;99.90
8152;DHT22;4117;53.622;9.958;2024-02-15T03:42:20;10.80;99.90
8152;DHT22;4117;53.622;9.958;2024-02-15T03:44:47;10.70;99.90
8152;DHT22;4117;53.622;9.958;2024-02-15T03:47:14;10.70;99.90
8152;DHT22;4117;53.622;9.958;2024-02-15T03:49:41;10.70;99.90
8152;DHT22;4117;53.622;9.958;2024-02-15T03:52:09;10.70;99.90
8152;DHT22;4117;53.622;9.958;2024-02-15T03:54:37;10.80;99.90
8152;DHT22;4117;53.622;9.958;2024-02-15T03:57:04;10.70;99.90
8152;DHT22;4117;53.622;9.958;2024-02-15T03:59:32;10.80;99.90
8152;DHT22;4117;53.622;9.958;2024-02-15T04:02:00;10.80;99.90
8152;DHT22;4117;53.622;9.958;2024-02-15T04:04:28;10.80;99.90
8152;DHT22;4117;53.622;9.958;2024-02-15T04:06:55;10.70;99.90
8152;DHT22;4117;53.622;9.958;2024-02-15T04:09:25;10.80;99.90
8152;DHT22;4117;53.622;9.958;2024-02-15T04:11:52;10.80;99.90
8152;DHT22;4117;53.622;9.958;2024-02-15T04:14:19;10.80;99.90
8152;DHT22;4117;53.622;9.958;2024-02-15T04:16:46;10.80;99.90
8152;DHT22;4117;53.622;9.958;2024-02-15T04:19:13;10.70;99.90
8152;DHT22;4117;53.622;9.958;2024-02-15T04:21:40;10.80;99.90
8152;DHT22;4117;53.622;9.958;2024-02-15T04:24:09;10.80;99.90
8152;DHT22;4117;53.622;9.958;2024-02-15T04:26:38;10.80;99.90
8152;DHT22;4117;53.622;9.958;2024-02-15T04:29:05;10.80;99.90
8152;DHT22;4117;53.622;9.958;2024-02-15T04:31:34;10.80;99.90
8152;DHT22;4117;53.622;9.958;2024-02-15T04:34:04;10.80;99.90
8152;DHT22;4117;53.622;9.958;2024-02-15T04:36:32;10.80;99.90
8152;DHT22;4117;53.622;9.958;2024-02-15T04:39:00;10.80;99.90
8152;DHT22;4117;53.622;9.958;2024-02-15T04:41:28;10.80;99.90
8152;DHT22;4117;53.622;9.958;2024-02-15T04:43:56;10.80;99.90
8152;DHT22;4117;53.622;9.958;2024-02-15T04:46:23;10.80;99.90
8152;DHT22;4117;53.622;9.958;2024-02-15T04:48:51;10.80;99.90
8152;DHT22;4117;53.622;9.958;2024-02-15T04:51:19;10.80;99.90
8152;DHT22;4117;53.622;9.958;2024-02-15T04:53:47;10.80;99.90
8152;DHT22;4117;53.622;9.958;2024-02-15T04:56:14;10.80;99.90
8152;DHT22;4117;53.622;9.958;2024-02-15T04:58:43;10.80;99.90
8152;DHT22;4117;53.622;9.958;2024-02-15T05:01:15;10.80;99.90
8152;DHT22;4117;53.622;9.958;2024-02-15T05:03:42;10.80;99.90
8152;DHT22;4117;53.622;9.958;2024-02-15T05:06:09;10.80;99.90
8152;DHT22;4117;53.622;9.958;2024-02-15T05:08:38;10.80;99.90
8152;DHT22;4117;53.622;9.958;2024-02-15T05:11:08;10.80;99.90
8152;DHT22;4117;53.622;9.958;2024-02-15T05:13:40;10.80;99.90
8152;DHT22;4117;53.622;9.958;2024-02-15T05:16:07;10.80;99.90
8152;DHT22;4117;53.622;9.958;2024-02-15T05:18:36;10.80;99.90
8152;DHT22;4117;53.622;9.958;2024-02-15T05:21:04;10.80;99.90
8152;DHT22;4117;53.622;9.958;2024-02-15T05:23:34;10.90;99.90
8152;DHT22;4117;53.622;9.958;2024-02-15T05:26:02;10.90;99.90
8152;DHT22;4117;53.622;9.958;2024-02-15T05:28:30;10.80;99.90
8152;DHT22;4117;53.622;9.958;2024-02-15T05:31:11;10.90;99.90
8152;DHT22;4117;53.622;9.958;2024-02-15T05:33:41;10.90;99.90
8152;DHT22;4117;53.622;9.958;2024-02-15T05:36:10;10.90;99.90
8152;DHT22;4117;53.622;9.958;2024-02-15T05:38:37;10.90;99.90
8152;DHT22;4117;53.622;9.958;2024-02-15T05:41:04;10.80;99.90
8152;DHT22;4117;53.622;9.958;2024-02-15T05:43:33;10.80;99.90
8152;DHT22;4117;53.622;9.958;2024-02-15T05:46:02;10.80;99.90
8152;DHT22;4117;53.622;9.958;2024-02-15T05:48:29;10.80;99.90
8152;DHT22;4117;53.622;9.958;2024-02-15T05:50:57;10.90;99.90
8152;DHT22;4117;53.622;9.958;2024-02-15T05:53:25;10.90;99.90
8152;DHT22;4117;53.622;9.958;2024-02-15T05:55:52;10.90;99.90
8152;DHT22;4117;53.622;9.958;2024-02-15T05:58:19;10.90;99.90
8152;DHT22;4117;53.622;9.958;2024-02-15T06:00:46;10.90;99.90
8152;DHT22;4117;53.622;9.958;2024-02-15T06:03:15;10.90;99.90
8152;DHT22;4117;53.622;9.958;2024-02-15T06:05:44;10.90;99.90
8152;DHT22;4117;53.622;9.958;2024-02-15T06:08:13;10.90;99.90
8152;DHT22;4117;53.622;9.958;2024-02-15T06:10:41;10.90;99.90
8152;DHT22;4117;53.622;9.958;2024-02-15T06:13:08;10.90;99.90
8152;DHT22;4117;53.622;9.958;2024-02-15T06:15:35;10.90;99.90
8152;DHT22;4117;53.622;9.958;2024-02-15T06:18:03;10.90;99.90
8152;DHT22;4117;53.622;9.958;2024-02-15T06:20:34;10.90;99.90
8152;DHT22;4117;53.622;9.958;2024-02-15T06:23:02;10.90;99.90
8152;DHT22;4117;53.622;9.958;2024-02-15T06:25:32;10.90;99.90
8152;DHT22;4117;53.622;9.958;2024-02-15T06:27:59;10.90;99.90
8152;DHT22;4117;53.622;9.958;2024-02-15T06:30:28;10.90;99.90
8152;DHT22;4117;53.622;9.958;2024-02-15T06:33:12;10.80;99.90
8152;DHT22;4117;53.622;9.958;2024-02-15T06:36:05;10.90;99.90
8152;DHT22;4117;53.622;9.958;2024-02-15T06:38:49;10.90;99.90
8152;DHT22;4117;53.622;9.958;2024-02-15T06:41:35;10.90;99.90
8152;DHT22;4117;53.622;9.958;2024-02-15T06:44:02;10.90;99.90
8152;DHT22;4117;53.622;9.958;2024-02-15T06:46:29;10.90;99.90
8152;DHT22;4117;53.622;9.958;2024-02-15T06:48:56;10.90;99.90
8152;DHT22;4117;53.622;9.958;2024-02-15T06:51:24;10.90;99.90
8152;DHT22;4117;53.622;9.958;2024-02-15T06:53:51;10.90;99.90
8152;DHT22;4117;53.622;9.958;2024-02-15T06:56:21;10.90;99.90
8152;DHT22;4117;53.622;9.958;2024-02-15T06:58:49;10.90;99.90
8152;DHT22;4117;53.622;9.958;2024-02-15T07:01:17;10.90;99.90
8152;DHT22;4117;53.622;9.958;2024-02-15T07:03:45;10.90;99.90
8152;DHT22;4117;53.622;9.958;2024-02-15T07:06:13;10.90;99.90
8152;DHT22;4117;53.622;9.958;2024-02-15T07:08:40;10.90;99.90
8152;DHT22;4117;53.622;9.958;2024-02-15T07:11:07;10.90;99.90
8152;DHT22;4117;53.622;9.958;2024-02-15T07:13:35;10.90;99.90
8152;DHT22;4117;53.622;9.958;2024-02-15T07:16:07;10.90;99.90
8152;DHT22;4117;53.622;9.958;2024-02-15T07:18:34;10.90;99.90
8152;DHT22;4117;53.622;9.958;2024-02-15T07:21:01;10.90;99.90
8152;DHT22;4117;53.622;9.958;2024-02-15T07:23:29;10.90;99.90
8152;DHT22;4117;53.622;9.958;2024-02-15T07:25:56;10.90;99.90
8152;DHT22;4117;53.622;9.958;2024-02-15T07:28:23;10.90;99.90
8152;DHT22;4117;53.622;9.958;2024-02-15T07:30:52;10.90;99.90
8152;DHT22;4117;53.622;9.958;2024-02-15T07:33:21;10.90;99.90
8152;DHT22;4117;53.622;9.958;2024-02-15T07:35:49;10.90;99.90
8152;DHT22;4117;53.622;9.958;2024-02-15T07:38:17;10.90;99.90
8152;DHT22;4117;53.622;9.958;2024-02-15T07:40:44;10.90;99.90
8152;DHT22;4117;53.622;9.958;2024-02-15T07:43:11;10.90;99.90
8152;DHT22;4117;53.622;9.958;2024-02-15T07:45:38;10.90;99.90
8152;DHT22;4117;53.622;9.958;2024-02-15T07:48:05;10.90;99.90
8152;DHT22;4117;53.622;9.958;2024-02-15T07:50:33;11.00;99.90
8152;DHT22;4117;53.622;9.958;2024-02-15T07:53:03;11.00;99.90
8152;DHT22;4117;53.622;9.958;2024-02-15T07:55:31;11.00;99.90
8152;DHT22;4117;53.622;9.958;2024-02-15T07:57:57;11.00;99.90
8152;DHT22;4117;53.622;9.958;2024-02-15T08:00:26;11.00;99.90
8152;DHT22;4117;53.622;9.958;2024-02-15T08:02:53;11.00;99.90
8152;DHT22;4117;53.622;9.958;2024-02-15T08:05:20;11.00;99.90
8152;DHT22;4117;53.622;9.958;2024-02-15T08:07:49;11.00;99.90
8152;DHT22;4117;53.622;9.958;2024-02-15T08:10:16;11.00;99.90
8152;DHT22;4117;53.622;9.958;2024-02-15T08:12:44;11.00;99.90
8152;DHT22;4117;53.622;9.958;2024-02-15T08:15:12;11.00;99.90
8152;DHT22;4117;53.622;9.958;2024-02-15T08:17:39;11.00;99.90
8152;DHT22;4117;53.622;9.958;2024-02-15T08:20:08;11.00;99.90
8152;DHT22;4117;53.622;9.958;2024-02-15T08:22:36;11.00;99.90
8152;DHT22;4117;53.622;9.958;2024-02-15T08:25:08;11.00;99.90
8152;DHT22;4117;53.622;9.958;2024-02-15T08:27:37;11.00;99.90
8152;DHT22;4117;53.622;9.958;2024-02-15T08:30:07;11.10;99.90
8152;DHT22;4117;53.622;9.958;2024-02-15T08:32:38;11.00;99.90
8152;DHT22;4117;53.622;9.958;2024-02-15T08:35:08;11.00;99.90
8152;DHT22;4117;53.622;9.958;2024-02-15T08:37:37;11.10;99.90
8152;DHT22;4117;53.622;9.958;2024-02-15T08:40:10;11.10;99.90
8152;DHT22;4117;53.622;9.958;2024-02-15T08:42:39;11.10;99.90
8152;DHT22;4117;53.622;9.958;2024-02-15T08:45:07;11.10;99.90
8152;DHT22;4117;53.622;9.958;2024-02-15T08:47:36;11.10;99.90
8152;DHT22;4117;53.622;9.958;2024-02-15T08:50:05;11.10;99.90
8152;DHT22;4117;53.622;9.958;2024-02-15T08:52:34;11.10;99.90
8152;DHT22;4117;53.622;9.958;2024-02-15T08:55:04;11.20;99.90
8152;DHT22;4117;53.622;9.958;2024-02-15T08:57:34;11.20;99.90
8152;DHT22;4117;53.622;9.958;2024-02-15T09:00:03;11.20;99.90
8152;DHT22;4117;53.622;9.958;2024-02-15T09:02:35;11.20;99.90
8152;DHT22;4117;53.622;9.958;2024-02-15T09:05:02;11.20;99.90
8152;DHT22;4117;53.622;9.958;2024-02-15T09:07:29;11.30;99.90
8152;DHT22;4117;53.622;9.958;2024-02-15T09:09:56;11.30;99.90
8152;DHT22;4117;53.622;9.958;2024-02-15T09:12:33;11.30;99.90
8152;DHT22;4117;53.622;9.958;2024-02-15T09:15:03;11.30;99.90
8152;DHT22;4117;53.622;9.958;2024-02-15T09:17:30;11.30;99.90
8152;DHT22;4117;53.622;9.958;2024-02-15T09:19:58;11.30;99.90
8152;DHT22;4117;53.622;9.958;2024-02-15T09:22:25;11.30;99.90
8152;DHT22;4117;53.622;9.958;2024-02-15T09:24:52;11.30;99.90
8152;DHT22;4117;53.622;9.958;2024-02-15T09:27:19;11.40;99.90
8152;DHT22;4117;53.622;9.958;2024-02-15T09:29:49;11.40;99.90
8152;DHT22;4117;53.622;9.958;2024-02-15T09:32:16;11.40;99.90
8152;DHT22;4117;53.622;9.958;2024-02-15T09:34:43;11.40;99.90
8152;DHT22;4117;53.622;9.958;2024-02-15T09:37:11;11.50;99.90
8152;DHT22;4117;53.622;9.958;2024-02-15T09:39:39;11.50;99.90
8152;DHT22;4117;53.622;9.958;2024-02-15T09:42:06;11.50;99.90
8152;DHT22;4117;53.622;9.958;2024-02-15T09:44:33;11.50;99.90
8152;DHT22;4117;53.622;9.958;2024-02-15T09:47:04;11.50;99.90
8152;DHT22;4117;53.622;9.958;2024-02-15T09:49:35;11.50;99.90
8152;DHT22;4117;53.622;9.958;2024-02-15T09:52:06;11.50;99.90
8152;DHT22;4117;53.622;9.958;2024-02-15T09:54:39;11.60;99.90
8152;DHT22;4117;53.622;9.958;2024-02-15T09:57:07;11.60;99.90
8152;DHT22;4117;53.622;9.958;2024-02-15T09:59:35;11.60;99.90
8152;DHT22;4117;53.622;9.958;2024-02-15T10:02:03;11.60;99.90
8152;DHT22;4117;53.622;9.958;2024-02-15T10:04:37;11.60;99.90
8152;DHT22;4117;53.622;9.958;2024-02-15T10:07:11;11.70;99.90
8152;DHT22;4117;53.622;9.958;2024-02-15T10:09:58;11.70;99.90
8152;DHT22;4117;53.622;9.958;2024-02-15T10:12:57;11.70;99.90
8152;DHT22;4117;53.622;9.958;2024-02-15T10:15:45;11.60;99.90
8152;DHT22;4117;53.622;9.958;2024-02-15T10:18:27;11.70;99.90
8152;DHT22;4117;53.622;9.958;2024-02-15T10:21:08;11.70;99.90
8152;DHT22;4117;53.622;9.958;2024-02-15T10:23:36;11.70;99.90
8152;DHT22;4117;53.622;9.958;2024-02-15T10:26:23;11.70;99.90
8152;DHT22;4117;53.622;9.958;2024-02-15T10:29:05;11.70;99.90
8152;DHT22;4117;53.622;9.958;2024-02-15T10:31:52;11.70;99.90
8152;DHT22;4117;53.622;9.958;2024-02-15T10:34:21;11.70;99.90
8152;DHT22;4117;53.622;9.958;2024-02-15T10:36:48;11.80;99.90
8152;DHT22;4117;53.622;9.958;2024-02-15T10:39:16;11.80;99.90
8152;DHT22;4117;53.622;9.958;2024-02-15T10:41:49;11.80;99.90
8152;DHT22;4117;53.622;9.958;2024-02-15T10:44:18;11.80;99.90
8152;DHT22;4117;53.622;9.958;2024-02-15T10:46:46;11.90;99.90
8152;DHT22;4117;53.622;9.958;2024-02-15T10:49:17;11.90;99.90
8152;DHT22;4117;53.622;9.958;2024-02-15T10:51:51;11.90;99.90
8152;DHT22;4117;53.622;9.958;2024-02-15T10:54:45;11.90;99.90
8152;DHT22;4117;53.622;9.958;2024-02-15T10:57:15;11.90;99.90
8152;DHT22;4117;53.622;9.958;2024-02-15T10:59:53;11.90;99.90
8152;DHT22;4117;53.622;9.958;2024-02-15T11:02:34;11.90;99.90
8152;DHT22;4117;53.622;9.958;2024-02-15T11:05:06;11.90;99.90
8152;DHT22;4117;53.622;9.958;2024-02-15T11:07:37;11.90;99.90
8152;DHT22;4117;53.622;9.958;2024-02-15T11:10:06;12.00;99.90
8152;DHT22;4117;53.622;9.958;2024-02-15T11:12:36;12.00;99.90
8152;DHT22;4117;53.622;9.958;2024-02-15T11:15:09;12.00;99.90
8152;DHT22;4117;53.622;9.958;2024-02-15T11:17:46;12.00;99.90
8152;DHT22;4117;53.622;9.958;2024-02-15T11:20:50;12.00;99.90
8152;DHT22;4117;53.622;9.958;2024-02-15T11:23:37;12.00;99.90
8152;DHT22;4117;53.622;9.958;2024-02-15T11:26:47;11.90;99.90
8152;DHT22;4117;53.622;9.958;2024-02-15T11:29:49;12.00;99.90
8152;DHT22;4117;53.622;9.958;2024-02-15T11:32:35;12.00;99.90
8152;DHT22;4117;53.622;9.958;2024-02-15T11:35:05;12.00;99.90
8152;DHT22;4117;53.622;9.958;2024-02-15T11:37:53;12.00;99.90
8152;DHT22;4117;53.622;9.958;2024-02-15T11:40:23;12.00;99.90
8152;DHT22;4117;53.622;9.958;2024-02-15T11:42:52;11.90;99.90
8152;DHT22;4117;53.622;9.958;2024-02-15T11:45:20;12.00;99.90
8152;DHT22;4117;53.622;9.958;2024-02-15T11:47:48;11.90;99.90
8152;DHT22;4117;53.622;9.958;2024-02-15T11:50:16;11.90;99.90
8152;DHT22;4117;53.622;9.958;2024-02-15T11:52:44;11.90;99.90
8152;DHT22;4117;53.622;9.958;2024-02-15T11:55:12;11.90;99.90
8152;DHT22;4117;53.622;9.958;2024-02-15T11:57:41;11.90;99.90
8152;DHT22;4117;53.622;9.958;2024-02-15T12:00:23;11.90;99.90
8152;DHT22;4117;53.622;9.958;2024-02-15T12:03:08;11.90;99.90
8152;DHT22;4117;53.622;9.958;2024-02-15T12:05:52;11.90;99.90
8152;DHT22;4117;53.622;9.958;2024-02-15T12:08:37;11.90;99.90
8152;DHT22;4117;53.622;9.958;2024-02-15T12:11:21;11.90;99.90
8152;DHT22;4117;53.622;9.958;2024-02-15T12:14:11;11.90;99.90
8152;DHT22;4117;53.622;9.958;2024-02-15T12:17:00;11.90;99.90
8152;DHT22;4117;53.622;9.958;2024-02-15T12:19:46;11.90;99.90
8152;DHT22;4117;53.622;9.958;2024-02-15T12:22:14;11.90;99.90
8152;DHT22;4117;53.622;9.958;2024-02-15T12:24:41;11.90;99.90
8152;DHT22;4117;53.622;9.958;2024-02-15T12:27:08;11.90;99.90
8152;DHT22;4117;53.622;9.958;2024-02-15T12:29:36;11.90;99.90
8152;DHT22;4117;53.622;9.958;2024-02-15T12:32:04;11.90;99.90
8152;DHT22;4117;53.622;9.958;2024-02-15T12:34:31;11.90;99.90
8152;DHT22;4117;53.622;9.958;2024-02-15T12:37:07;11.90;99.90
8152;DHT22;4117;53.622;9.958;2024-02-15T12:39:35;12.00;99.90
8152;DHT22;4117;53.622;9.958;2024-02-15T12:42:02;11.90;99.90
8152;DHT22;4117;53.622;9.958;2024-02-15T12:44:30;11.90;99.90
8152;DHT22;4117;53.622;9.958;2024-02-15T12:47:00;12.00;99.90
8152;DHT22;4117;53.622;9.958;2024-02-15T12:49:30;11.90;99.90
8152;DHT22;4117;53.622;9.958;2024-02-15T12:52:35;11.90;99.90
8152;DHT22;4117;53.622;9.958;2024-02-15T12:55:11;11.90;99.90
8152;DHT22;4117;53.622;9.958;2024-02-15T12:57:38;11.90;99.90
8152;DHT22;4117;53.622;9.958;2024-02-15T13:00:08;11.90;99.90
8152;DHT22;4117;53.622;9.958;2024-02-15T13:02:41;11.90;99.90
8152;DHT22;4117;53.622;9.958;2024-02-15T13:05:08;11.90;99.90
8152;DHT22;4117;53.622;9.958;2024-02-15T13:07:36;11.90;99.90
8152;DHT22;4117;53.622;9.958;2024-02-15T13:10:04;11.90;99.90
8152;DHT22;4117;53.622;9.958;2024-02-15T13:12:33;11.90;99.90
8152;DHT22;4117;53.622;9.958;2024-02-15T13:15:02;11.90;99.90
8152;DHT22;4117;53.622;9.958;2024-02-15T13:17:30;11.90;99.90
8152;DHT22;4117;53.622;9.958;2024-02-15T13:20:00;11.90;99.90
8152;DHT22;4117;53.622;9.958;2024-02-15T13:22:36;11.90;99.90
8152;DHT22;4117;53.622;9.958;2024-02-15T13:25:05;11.90;99.90
8152;DHT22;4117;53.622;9.958;2024-02-15T13:27:33;11.90;99.90
8152;DHT22;4117;53.622;9.958;2024-02-15T13:30:00;11.90;99.90
8152;DHT22;4117;53.622;9.958;2024-02-15T13:32:27;11.80;99.90
8152;DHT22;4117;53.622;9.958;2024-02-15T13:34:54;11.90;99.90
8152;DHT22;4117;53.622;9.958;2024-02-15T13:37:24;11.90;99.90
8152;DHT22;4117;53.622;9.958;2024-02-15T13:39:52;11.90;99.90
8152;DHT22;4117;53.622;9.958;2024-02-15T13:42:19;11.90;99.90
8152;DHT22;4117;53.622;9.958;2024-02-15T13:44:46;11.90;99.90
8152;DHT22;4117;53.622;9.958;2024-02-15T13:47:14;11.90;99.90
8152;DHT22;4117;53.622;9.958;2024-02-15T13:49:41;11.80;99.90
8152;DHT22;4117;53.622;9.958;2024-02-15T13:52:09;11.90;99.90
8152;DHT22;4117;53.622;9.958;2024-02-15T13:54:38;11.90;99.90
8152;DHT22;4117;53.622;9.958;2024-02-15T13:57:05;11.90;99.90
8152;DHT22;4117;53.622;9.958;2024-02-15T13:59:33;11.90;99.90
8152;DHT22;4117;53.622;9.958;2024-02-15T14:02:00;11.90;99.90
8152;DHT22;4117;53.622;9.958;2024-02-15T14:04:29;11.80;99.90
8152;DHT22;4117;53.622;9.958;2024-02-15T14:06:57;11.90;99.90
8152;DHT22;4117;53.622;9.958;2024-02-15T14:09:25;11.90;99.90
8152;DHT22;4117;53.622;9.958;2024-02-15T14:11:54;11.90;99.90
8152;DHT22;4117;53.622;9.958;2024-02-15T14:14:21;11.90;99.90
8152;DHT22;4117;53.622;9.958;2024-02-15T14:16:48;11.90;99.90
8152;DHT22;4117;53.622;9.958;2024-02-15T14:19:15;11.90;99.90
8152;DHT22;4117;53.622;9.958;2024-02-15T14:21:43;11.90;99.90
8152;DHT22;4117;53.622;9.958;2024-02-15T14:24:10;11.90;99.90
8152;DHT22;4117;53.622;9.958;2024-02-15T14:26:38;11.90;99.90
8152;DHT22;4117;53.622;9.958;2024-02-15T14:29:06;11.90;99.90
8152;DHT22;4117;53.622;9.958;2024-02-15T14:31:35;11.90;99.90
8152;DHT22;4117;53.622;9.958;2024-02-15T14:34:19;11.80;99.90
8152;DHT22;4117;53.622;9.958;2024-02-15T14:36:46;11.80;99.90
8152;DHT22;4117;53.622;9.958;2024-02-15T14:39:14;11.90;99.90
8152;DHT22;4117;53.622;9.958;2024-02-15T14:41:41;11.80;99.90
8152;DHT22;4117;53.622;9.958;2024-02-15T14:44:10;11.80;99.90
8152;DHT22;4117;53.622;9.958;2024-02-15T14:46:39;11.90;99.90
8152;DHT22;4117;53.622;9.958;2024-02-15T14:49:06;11.80;99.90
8152;DHT22;4117;53.622;9.958;2024-02-15T14:51:34;11.80;99.90
8152;DHT22;4117;53.622;9.958;2024-02-15T14:54:02;11.80;99.90
8152;DHT22;4117;53.622;9.958;2024-02-15T14:56:30;11.90;99.90
8152;DHT22;4117;53.622;9.958;2024-02-15T14:58:58;11.90;99.90
8152;DHT22;4117;53.622;9.958;2024-02-15T15:01:27;11.90;99.90
8152;DHT22;4117;53.622;9.958;2024-02-15T15:03:56;11.80;99.90
8152;DHT22;4117;53.622;9.958;2024-02-15T15:06:24;11.90;99.90
8152;DHT22;4117;53.622;9.958;2024-02-15T15:09:09;11.90;99.90
8152;DHT22;4117;53.622;9.958;2024-02-15T15:11:54;11.80;99.90
8152;DHT22;4117;53.622;9.958;2024-02-15T15:14:39;11.80;99.90
8152;DHT22;4117;53.622;9.958;2024-02-15T15:17:08;11.90;99.90
8152;DHT22;4117;53.622;9.958;2024-02-15T15:19:37;11.90;99.90
8152;DHT22;4117;53.622;9.958;2024-02-15T15:22:05;11.90;99.90
8152;DHT22;4117;53.622;9.958;2024-02-15T15:24:33;11.90;99.90
8152;DHT22;4117;53.622;9.958;2024-02-15T15:27:00;11.80;99.90
8152;DHT22;4117;53.622;9.958;2024-02-15T15:29:27;11.90;99.90
8152;DHT22;4117;53.622;9.958;2024-02-15T15:31:56;11.80;99.90
8152;DHT22;4117;53.622;9.958;2024-02-15T15:34:24;11.90;99.90
8152;DHT22;4117;53.622;9.958;2024-02-15T15:36:51;11.90;99.90
8152;DHT22;4117;53.622;9.958;2024-02-15T15:39:20;11.80;99.90
8152;DHT22;4117;53.622;9.958;2024-02-15T15:41:50;11.80;99.90
8152;DHT22;4117;53.622;9.958;2024-02-15T15:44:20;11.80;99.90
8152;DHT22;4117;53.622;9.958;2024-02-15T15:46:50;11.80;99.90
8152;DHT22;4117;53.622;9.958;2024-02-15T15:49:17;11.80;99.90
8152;DHT22;4117;53.622;9.958;2024-02-15T15:51:46;11.80;99.90
8152;DHT22;4117;53.622;9.958;2024-02-15T15:54:15;11.80;99.90
8152;DHT22;4117;53.622;9.958;2024-02-15T15:56:45;11.80;99.90
8152;DHT22;4117;53.622;9.958;2024-02-15T15:59:12;11.80;99.90
8152;DHT22;4117;53.622;9.958;2024-02-15T16:01:39;11.80;99.90
8152;DHT22;4117;53.622;9.958;2024-02-15T16:04:07;11.80;99.90
8152;DHT22;4117;53.622;9.958;2024-02-15T16:06:34;11.80;99.90
8152;DHT22;4117;53.622;9.958;2024-02-15T16:09:02;11.80;99.90
8152;DHT22;4117;53.622;9.958;2024-02-15T16:11:30;11.80;99.90
8152;DHT22;4117;53.622;9.958;2024-02-15T16:13:57;11.80;99.90
8152;DHT22;4117;53.622;9.958;2024-02-15T16:16:24;11.80;99.90
8152;DHT22;4117;53.622;9.958;2024-02-15T16:18:51;11.80;99.90